Time;durP1;ratioP1;P1;durP2;ratioP2;P2;SDS_P1;SDS_P2;PMS_P1;PMS_P2;Temp;Humidity;BMP_temperature;BMP_pressure;BME280_temperature;BME280_humidity;BME280_pressure;Samples;Min_cycle;Max_cycle;Signal;HPM_P1;HPM_P2
2022/05/14 04:43:04;;;;;;;11.45;3.85;;;17.70;63.80;;;;;;5500206;23;20049;-70
2022/05/14 04:45:30;;;;;;;17.75;4.65;;;17.70;64.00;;;;;;4898779;29;20072;-70
2022/05/14 04:47:55;;;;;;;13.43;3.53;;;17.70;64.00;;;;;;4904768;29;20052;-72
2022/05/14 04:50:21;;;;;;;12.95;3.75;;;17.80;63.90;;;;;;4921859;29;20062;-71
2022/05/14 04:52:47;;;;;;;13.88;3.97;;;17.90;63.90;;;;;;4904532;29;20044;-72
2022/05/14 04:55:13;;;;;;;12.35;3.13;;;18.00;64.00;;;;;;4901941;29;20057;-74
2022/05/14 04:57:41;;;;;;;8.73;3.60;;;18.00;63.80;;;;;;4898416;29;20433;-77
2022/05/14 05:00:07;;;;;;;12.55;4.07;;;18.10;63.80;;;;;;4905590;29;20580;-72
2022/05/14 05:05:18;;;;;;;10.25;2.58;;;18.40;63.60;;;;;;4921650;29;20056;-72
2022/05/14 05:07:46;;;;;;;12.75;3.90;;;18.50;63.50;;;;;;4904141;29;20545;-79
2022/05/14 05:10:12;;;;;;;14.68;3.35;;;18.50;63.20;;;;;;4895441;29;20069;-74
2022/05/14 05:12:37;;;;;;;13.88;2.90;;;18.40;63.60;;;;;;4913022;29;20086;-77
2022/05/14 05:15:04;;;;;;;14.30;3.22;;;18.50;63.70;;;;;;4900436;29;20127;-74
2022/05/14 05:17:29;;;;;;;16.05;3.40;;;18.50;63.60;;;;;;4921395;29;20055;-71
2022/05/14 05:19:55;;;;;;;12.82;3.75;;;18.60;63.70;;;;;;4914019;29;20054;-80
2022/05/14 05:22:21;;;;;;;10.40;2.45;;;18.60;63.60;;;;;;4902674;29;20123;-74
2022/05/14 05:24:47;;;;;;;17.10;3.75;;;18.60;63.60;;;;;;4902044;29;20381;-77
2022/05/14 05:27:13;;;;;;;12.77;3.50;;;18.70;63.80;;;;;;4902804;29;20052;-75
2022/05/14 05:29:39;;;;;;;11.18;2.60;;;18.70;63.90;;;;;;4902445;29;20361;-74
2022/05/14 05:32:05;;;;;;;11.07;2.97;;;18.70;63.80;;;;;;4902668;29;20109;-77
2022/05/14 05:34:30;;;;;;;12.68;2.80;;;18.80;63.70;;;;;;4907321;29;20044;-78
2022/05/14 05:36:56;;;;;;;12.88;2.72;;;18.80;63.60;;;;;;4915186;29;20041;-76
2022/05/14 05:39:22;;;;;;;15.50;3.22;;;18.80;63.70;;;;;;4913982;29;20046;-77
2022/05/14 05:41:48;;;;;;;16.50;4.07;;;18.80;63.70;;;;;;4920991;29;20436;-77
2022/05/14 05:44:13;;;;;;;18.08;3.67;;;18.90;63.90;;;;;;4920817;29;20060;-73
2022/05/14 05:46:39;;;;;;;16.08;3.17;;;18.90;63.70;;;;;;4920890;29;20071;-75
2022/05/14 05:49:05;;;;;;;13.35;3.63;;;18.90;63.60;;;;;;4901444;29;20087;-75
2022/05/14 05:51:32;;;;;;;17.65;3.45;;;18.90;63.60;;;;;;4902047;29;20049;-75
2022/05/14 05:56:56;;;;;;;18.50;3.83;;;18.90;64.00;;;;;;4901577;29;20057;-71
2022/05/14 05:59:23;;;;;;;13.63;3.88;;;18.80;64.00;;;;;;4902014;29;20428;-76
2022/05/14 06:01:51;;;;;;;14.15;3.33;;;18.80;63.80;;;;;;4901648;29;20048;-76
2022/05/14 06:04:17;;;;;;;20.38;3.78;;;18.80;63.70;;;;;;4901918;29;20194;-75
2022/05/14 06:06:42;;;;;;;13.07;3.35;;;18.70;64.40;;;;;;4902320;29;20501;-80
2022/05/14 06:09:13;;;;;;;24.00;4.13;;;18.70;64.70;;;;;;4901315;29;20080;-81
2022/05/14 06:11:42;;;;;;;15.43;4.00;;;18.80;64.70;;;;;;4900149;29;20044;-81
2022/05/14 06:14:08;;;;;;;21.13;4.85;;;18.80;64.40;;;;;;4899851;29;20472;-80
2022/05/14 06:16:34;;;;;;;19.13;4.65;;;18.90;63.90;;;;;;4903316;29;20041;-81
2022/05/14 06:19:00;;;;;;;17.63;5.03;;;18.90;63.50;;;;;;4900166;29;20115;-80
2022/05/14 06:21:25;;;;;;;20.55;4.82;;;18.90;63.10;;;;;;4900096;29;20051;-82
2022/05/14 06:23:52;;;;;;;18.02;3.90;;;18.80;62.90;;;;;;4899012;29;20040;-80
2022/05/14 06:26:17;;;;;;;20.02;4.80;;;18.80;62.90;;;;;;4898179;29;20376;-80
2022/05/14 06:28:43;;;;;;;23.73;5.30;;;18.80;62.80;;;;;;4900172;29;20045;-81
2022/05/14 06:31:09;;;;;;;18.80;4.40;;;18.80;62.70;;;;;;4899618;29;20043;-77
2022/05/14 06:33:34;;;;;;;18.33;4.20;;;18.70;62.50;;;;;;4899558;29;20481;-83
2022/05/14 06:36:03;;;;;;;23.73;4.55;;;18.80;62.30;;;;;;4902219;29;20192;-85
2022/05/14 06:38:29;;;;;;;15.00;4.85;;;18.70;61.80;;;;;;4899890;29;20048;-70
2022/05/14 06:40:55;;;;;;;19.00;4.55;;;18.70;61.70;;;;;;4899707;29;20055;-76
2022/05/14 06:43:21;;;;;;;16.92;4.22;;;18.70;62.30;;;;;;4883785;29;20057;-76
2022/05/14 06:45:46;;;;;;;16.55;4.40;;;18.60;62.80;;;;;;4900693;29;20036;-70
2022/05/14 06:48:13;;;;;;;15.68;3.58;;;18.60;63.30;;;;;;4900587;29;20469;-75
2022/05/14 06:50:48;;;;;;;25.63;4.78;;;18.60;63.60;;;;;;4900553;29;20053;-73
2022/05/14 06:53:18;;;;;;;23.20;4.82;;;18.60;64.30;;;;;;4900655;29;20057;-74
2022/05/14 06:55:46;;;;;;;18.30;4.20;;;18.60;64.30;;;;;;4900414;29;20124;-75
2022/05/14 06:58:16;;;;;;;25.42;5.22;;;18.70;65.10;;;;;;4900736;29;20131;-74
2022/05/14 07:00:42;;;;;;;23.40;4.00;;;18.70;65.40;;;;;;4900740;29;20060;-74
2022/05/14 07:08:40;;;;;;;23.33;4.45;;;18.90;65.70;;;;;;4900302;29;20139;-73
2022/05/14 07:11:07;;;;;;;22.52;5.43;;;18.90;65.80;;;;;;4901074;29;20331;-72
2022/05/14 07:13:32;;;;;;;19.23;4.05;;;19.00;66.00;;;;;;4900356;29;20044;-72
2022/05/14 07:15:58;;;;;;;18.45;5.43;;;18.90;66.00;;;;;;4900445;29;20044;-72
2022/05/14 07:18:25;;;;;;;30.85;6.38;;;19.00;66.10;;;;;;4900298;29;20063;-73
2022/05/14 07:20:51;;;;;;;17.55;4.38;;;19.00;66.10;;;;;;4899049;29;20401;-72
2022/05/14 07:23:17;;;;;;;19.33;4.97;;;19.00;66.00;;;;;;4900404;29;20049;-72
2022/05/14 07:25:43;;;;;;;14.85;4.05;;;19.00;65.60;;;;;;4900094;29;20044;-72
2022/05/14 07:28:08;;;;;;;20.42;4.57;;;19.10;64.80;;;;;;4900132;29;20357;-72
2022/05/14 07:30:35;;;;;;;15.25;4.20;;;19.10;64.20;;;;;;4899804;29;20480;-71
2022/05/14 07:33:01;;;;;;;13.55;4.65;;;19.10;63.10;;;;;;4899974;29;20059;-73
2022/05/14 07:35:28;;;;;;;18.85;4.72;;;19.10;62.50;;;;;;4900001;29;20060;-77
2022/05/14 07:37:56;;;;;;;24.08;5.07;;;19.10;62.20;;;;;;4900198;29;20060;-73
2022/05/14 07:40:27;;;;;;;25.13;4.93;;;19.10;61.70;;;;;;4900187;29;20044;-75
2022/05/14 07:43:04;;;;;;;24.85;5.32;;;19.10;61.50;;;;;;4900425;29;20041;-75
2022/05/14 07:45:41;;;;;;;28.48;5.78;;;19.10;61.30;;;;;;4899878;29;20068;-75
2022/05/14 07:48:20;;;;;;;24.88;4.75;;;19.10;61.70;;;;;;4900625;29;20049;-74
2022/05/14 07:50:46;;;;;;;21.40;4.47;;;19.10;61.90;;;;;;4899952;29;20076;-74
2022/05/14 07:53:14;;;;;;;18.92;4.65;;;19.10;62.10;;;;;;4899982;29;20071;-74
2022/05/14 07:55:39;;;;;;;22.77;4.22;;;19.20;62.30;;;;;;4899654;29;20063;-74
2022/05/14 07:58:05;;;;;;;22.52;5.70;;;19.10;62.40;;;;;;4899702;29;20044;-75
2022/05/14 08:00:32;;;;;;;17.25;4.72;;;19.10;62.50;;;;;;4899729;29;20103;-74
2022/05/14 08:02:58;;;;;;;23.17;4.07;;;19.20;62.70;;;;;;4916788;29;20044;-74
2022/05/14 08:05:24;;;;;;;21.38;4.40;;;19.20;62.60;;;;;;4918588;29;20047;-73
2022/05/14 08:07:50;;;;;;;16.55;3.65;;;19.20;62.90;;;;;;4917633;29;20052;-74
2022/05/14 08:10:17;;;;;;;17.52;4.55;;;19.20;62.90;;;;;;4918474;29;20368;-74
2022/05/14 08:12:50;;;;;;;15.25;3.75;;;19.20;63.00;;;;;;4919025;29;20119;-75
2022/05/14 08:15:18;;;;;;;16.80;3.70;;;19.20;63.10;;;;;;4918450;29;20469;-74
2022/05/14 08:17:44;;;;;;;10.80;3.15;;;19.20;63.10;;;;;;4918188;29;20055;-74
2022/05/14 08:20:11;;;;;;;11.85;3.60;;;19.20;63.10;;;;;;4918549;29;20380;-73
2022/05/14 08:25:21;;;;;;;12.70;3.80;;;19.30;63.30;;;;;;4918687;29;20051;-74
2022/05/14 08:27:47;;;;;;;17.08;3.83;;;19.30;63.30;;;;;;4918677;29;20087;-74
2022/05/14 08:30:17;;;;;;;10.82;3.10;;;19.30;63.40;;;;;;4918924;29;20075;-74
2022/05/14 08:32:43;;;;;;;10.00;2.95;;;19.30;63.40;;;;;;4904051;29;20048;-74
2022/05/14 08:35:10;;;;;;;16.15;3.42;;;19.30;64.00;;;;;;4899497;29;20064;-74
2022/05/14 08:37:36;;;;;;;11.48;3.63;;;19.30;63.40;;;;;;4899474;29;20088;-75
2022/05/14 08:40:13;;;;;;;13.93;3.58;;;19.30;63.50;;;;;;4898764;29;20056;-74
2022/05/14 08:42:40;;;;;;;12.25;3.38;;;19.30;63.60;;;;;;4899540;29;20413;-74
2022/05/14 08:45:06;;;;;;;11.95;2.90;;;19.40;63.50;;;;;;4898790;29;20144;-74
2022/05/14 08:47:48;;;;;;;13.80;3.58;;;19.40;63.60;;;;;;4901735;29;20107;-74
2022/05/14 08:50:14;;;;;;;11.15;3.40;;;19.40;63.60;;;;;;4902704;29;20429;-74
2022/05/14 08:52:41;;;;;;;11.23;3.63;;;19.40;63.60;;;;;;4903282;29;20364;-73
2022/05/14 08:55:14;;;;;;;10.23;2.80;;;19.40;63.60;;;;;;4900405;29;20065;-74
2022/05/14 08:57:43;;;;;;;;;;;19.40;63.60;;;;;;4903387;29;20049;-74
2022/05/14 09:00:10;;;;;;;10.57;3.38;;;19.40;63.90;;;;;;4902707;29;19934;-74
2022/05/14 09:02:42;;;;;;;10.48;3.10;;;19.40;63.60;;;;;;4917337;29;20432;-75
2022/05/14 09:05:12;;;;;;;11.30;3.13;;;19.50;63.80;;;;;;4921743;29;20381;-74
2022/05/14 09:07:39;;;;;;;11.13;2.97;;;19.50;63.80;;;;;;4921517;29;20372;-75
2022/05/14 09:10:08;;;;;;;12.95;3.72;;;19.50;63.80;;;;;;4921300;29;20103;-74
2022/05/14 09:12:37;;;;;;;9.35;3.17;;;19.50;63.80;;;;;;4921757;29;20098;-74
2022/05/14 09:15:13;;;;;;;11.13;2.88;;;19.50;63.70;;;;;;4921234;29;20052;-74
2022/05/14 09:17:39;;;;;;;8.20;2.67;;;19.50;63.80;;;;;;4921386;29;20055;-74
2022/05/14 09:20:06;;;;;;;11.10;3.38;;;19.50;63.80;;;;;;4920636;29;20056;-73
2022/05/14 09:22:44;;;;;;;11.15;2.60;;;19.50;63.80;;;;;;4921341;29;20053;-74
2022/05/14 09:25:28;;;;;;;13.95;3.78;;;19.50;63.90;;;;;;4921566;29;20044;-74
2022/05/14 09:27:58;;;;;;;12.80;3.85;;;19.50;63.90;;;;;;4920974;29;20119;-73
2022/05/14 09:30:36;;;;;;;7.20;2.67;;;19.50;63.80;;;;;;4920889;29;20198;-74
2022/05/14 09:33:03;;;;;;;10.13;3.20;;;19.50;63.80;;;;;;4902161;29;20049;-73
2022/05/14 09:35:32;;;;;;;9.57;3.15;;;19.50;63.80;;;;;;4901950;29;20049;-73
2022/05/14 09:38:18;;;;;;;7.45;2.60;;;19.50;63.80;;;;;;4902029;29;20060;-74
2022/05/14 09:40:46;;;;;;;8.05;2.40;;;19.60;64.10;;;;;;4901871;29;20120;-74
2022/05/14 09:43:14;;;;;;;5.75;2.25;;;19.60;64.00;;;;;;4902007;29;20064;-74
2022/05/14 09:45:55;;;;;;;8.75;2.60;;;19.60;64.00;;;;;;4900959;29;20131;-74
2022/05/14 09:48:28;;;;;;;9.80;2.85;;;19.60;63.90;;;;;;4901821;29;20116;-74
2022/05/14 09:51:01;;;;;;;7.30;2.22;;;19.60;64.00;;;;;;4901931;29;20442;-74
2022/05/14 09:53:36;;;;;;;7.00;2.47;;;19.60;64.00;;;;;;4901890;29;20048;-73
2022/05/14 09:56:17;;;;;;;10.25;2.63;;;19.60;64.00;;;;;;4902411;29;20045;-73
2022/05/14 09:59:18;;;;;;;9.25;2.88;;;19.60;64.00;;;;;;4900493;29;20084;-74
2022/05/14 10:01:55;;;;;;;9.70;2.80;;;19.60;64.00;;;;;;4905640;29;20063;-74
2022/05/14 10:05:05;;;;;;;8.02;2.88;;;19.60;63.90;;;;;;4900978;29;20431;-73
2022/05/14 10:07:54;;;;;;;7.70;2.63;;;19.60;63.90;;;;;;4896718;29;20052;-74
2022/05/14 10:10:33;;;;;;;8.57;2.65;;;19.60;63.90;;;;;;4901037;29;20067;-74
2022/05/14 10:13:15;;;;;;;8.55;3.13;;;19.60;63.90;;;;;;4902168;29;20049;-74
2022/05/14 10:16:07;;;;;;;7.40;2.60;;;19.60;63.90;;;;;;4901382;29;20111;-73
2022/05/14 10:19:10;;;;;;;5.57;2.30;;;19.60;63.90;;;;;;4900035;29;20524;-74
2022/05/14 10:21:51;;;;;;;5.95;2.40;;;19.60;63.80;;;;;;4901552;29;20438;-74
2022/05/14 10:28:02;;;;;;;9.40;2.60;;;19.70;63.80;;;;;;4901122;29;20057;-74
2022/05/14 10:30:54;;;;;;;7.07;2.35;;;19.70;63.70;;;;;;4893365;29;20139;-73
2022/05/14 10:33:24;;;;;;;7.13;2.60;;;19.70;63.80;;;;;;4915383;29;20079;-74
2022/05/14 10:35:54;;;;;;;8.45;2.85;;;19.60;63.60;;;;;;4920512;29;20360;-74
2022/05/14 10:38:26;;;;;;;6.93;2.47;;;19.60;63.60;;;;;;4920325;29;20060;-73
2022/05/14 10:40:57;;;;;;;6.97;2.72;;;19.60;63.50;;;;;;4919863;29;20074;-73
2022/05/14 10:43:43;;;;;;;6.45;2.47;;;19.70;63.60;;;;;;4919718;29;20354;-74
2022/05/14 10:46:20;;;;;;;8.88;2.58;;;19.70;63.60;;;;;;4919686;29;20063;-74
2022/05/14 10:48:57;;;;;;;8.68;2.53;;;19.70;63.60;;;;;;4919457;29;20115;-73
2022/05/14 10:51:29;;;;;;;8.90;2.20;;;19.70;63.60;;;;;;4919467;29;20048;-73
2022/05/14 10:53:55;;;;;;;8.48;2.80;;;19.70;63.60;;;;;;4919877;29;20062;-74
2022/05/14 10:56:27;;;;;;;7.90;2.88;;;19.70;63.50;;;;;;4919324;29;20064;-73
2022/05/14 10:58:56;;;;;;;6.95;1.90;;;19.70;63.60;;;;;;4919354;29;20056;-73
2022/05/14 11:01:58;;;;;;;6.63;2.33;;;19.70;63.50;;;;;;4909544;29;20132;-74
2022/05/14 11:04:45;;;;;;;7.38;2.47;;;19.70;63.50;;;;;;4899387;29;20132;-73
2022/05/14 11:07:39;;;;;;;8.65;2.63;;;19.70;63.50;;;;;;4900405;29;20052;-73
2022/05/14 11:10:22;;;;;;;;;;;19.70;63.50;;;;;;4900920;29;20052;-73
2022/05/14 11:12:50;;;;;;;5.10;1.85;;;19.70;63.60;;;;;;4900444;29;19943;-74
2022/05/14 11:15:28;;;;;;;6.88;2.53;;;19.60;63.50;;;;;;4900360;29;20044;-73
2022/05/14 11:18:02;;;;;;;9.52;2.10;;;19.70;63.50;;;;;;4900218;29;20052;-73
2022/05/14 11:20:28;;;;;;;6.40;2.20;;;19.70;63.50;;;;;;4900158;29;20052;-73
2022/05/14 11:23:06;;;;;;;10.20;2.85;;;19.70;63.40;;;;;;4900517;29;20060;-73
2022/05/14 11:25:32;;;;;;;6.95;2.33;;;19.60;63.40;;;;;;4900107;29;20056;-74
2022/05/14 11:28:16;;;;;;;6.47;2.58;;;19.70;63.50;;;;;;4900281;29;20442;-73
2022/05/14 11:30:51;;;;;;;7.90;2.88;;;19.70;63.40;;;;;;4904329;29;20051;-73
2022/05/14 11:33:26;;;;;;;6.03;2.13;;;19.70;63.30;;;;;;4919079;29;20052;-73
2022/05/14 11:35:55;;;;;;;7.32;2.80;;;19.70;63.30;;;;;;4919078;29;20138;-73
2022/05/14 11:38:24;;;;;;;6.30;2.58;;;19.70;63.30;;;;;;4918037;29;20044;-73
2022/05/14 11:41:03;;;;;;;9.80;3.38;;;19.70;63.30;;;;;;4918844;29;20056;-73
2022/05/14 11:43:32;;;;;;;7.65;2.28;;;19.70;63.30;;;;;;4918735;29;20068;-73
2022/05/14 11:46:14;;;;;;;10.07;2.92;;;19.70;63.30;;;;;;4919532;29;20474;-73
2022/05/14 11:49:02;;;;;;;17.20;3.10;;;19.70;63.30;;;;;;4919027;29;20059;-72
2022/05/14 11:51:31;;;;;;;16.15;3.63;;;19.70;62.90;;;;;;4918778;29;20044;-72
2022/05/14 11:54:24;;;;;;;9.70;3.08;;;19.70;63.00;;;;;;4918335;29;20071;-76
2022/05/14 11:56:57;;;;;;;11.35;2.72;;;19.70;63.30;;;;;;4914464;29;20094;-76
2022/05/14 11:59:31;;;;;;;27.15;4.65;;;19.70;63.10;;;;;;4918610;29;20380;-75
2022/05/14 12:02:00;;;;;;;16.27;3.45;;;19.70;63.00;;;;;;4902966;29;20059;-75
2022/05/14 12:04:36;;;;;;;21.30;3.90;;;19.70;62.60;;;;;;4900223;29;20438;-74
2022/05/14 12:07:29;;;;;;;26.38;4.10;;;19.70;62.50;;;;;;4899693;29;20060;-74
2022/05/14 12:10:13;;;;;;;22.58;4.30;;;19.70;62.60;;;;;;4899223;29;20049;-75
2022/05/14 12:12:48;;;;;;;26.50;4.55;;;19.70;62.90;;;;;;4898721;29;20067;-75
2022/05/14 12:15:21;;;;;;;19.40;4.63;;;19.70;62.90;;;;;;4899617;29;20048;-76
2022/05/14 12:17:56;;;;;;;27.52;4.88;;;19.80;62.30;;;;;;4883031;29;20059;-70
2022/05/14 12:20:30;;;;;;;24.02;5.30;;;19.80;62.10;;;;;;4900203;29;20052;-75
2022/05/14 12:23:01;;;;;;;24.83;4.93;;;19.80;62.30;;;;;;4902808;29;20044;-76
2022/05/14 12:25:37;;;;;;;23.45;4.95;;;19.80;62.10;;;;;;4902959;29;20048;-76
2022/05/14 12:28:03;;;;;;;18.33;4.30;;;19.80;61.80;;;;;;4904093;29;20108;-76
2022/05/14 12:33:18;;;;;;;23.65;5.03;;;19.80;62.00;;;;;;4919739;29;20056;-76
2022/05/14 12:35:55;;;;;;;18.70;4.20;;;19.80;61.90;;;;;;4922092;29;20056;-76
2022/05/14 12:38:30;;;;;;;20.40;4.93;;;19.80;62.00;;;;;;4922070;29;20352;-70
2022/05/14 12:40:56;;;;;;;22.25;4.90;;;19.80;61.90;;;;;;4921827;29;20044;-75
2022/05/14 12:43:23;;;;;;;23.73;5.10;;;19.80;62.00;;;;;;4922242;29;20064;-75
2022/05/14 12:46:02;;;;;;;21.70;5.45;;;19.80;62.10;;;;;;4921783;29;20110;-74
2022/05/14 12:48:30;;;;;;;27.92;5.80;;;19.80;62.10;;;;;;4921437;29;20051;-76
2022/05/14 12:50:57;;;;;;;31.65;6.00;;;19.80;62.20;;;;;;4921709;29;20048;-78
2022/05/14 12:53:36;;;;;;;20.58;5.35;;;19.80;62.20;;;;;;4921840;29;20056;-75
2022/05/14 12:56:03;;;;;;;27.35;5.78;;;19.80;62.40;;;;;;4921690;29;20036;-75
2022/05/14 12:58:31;;;;;;;26.20;4.95;;;19.80;62.50;;;;;;4916181;29;20036;-75
2022/05/14 13:00:57;;;;;;;30.20;6.10;;;19.80;62.50;;;;;;4915249;29;20052;-75
2022/05/14 13:03:44;;;;;;;39.05;7.05;;;19.80;62.60;;;;;;4921883;29;20051;-83
2022/05/14 13:06:19;;;;;;;26.38;5.80;;;19.80;61.50;;;;;;4921425;29;20048;-74
2022/05/14 13:08:52;;;;;;;24.73;5.65;;;19.80;61.30;;;;;;4921139;29;20043;-74
2022/05/14 13:11:21;;;;;;;29.33;5.15;;;19.80;61.40;;;;;;4920109;29;20066;-75
2022/05/14 13:13:51;;;;;;;29.83;6.22;;;19.80;61.20;;;;;;4921286;29;20059;-72
2022/05/14 13:16:29;;;;;;;29.15;6.28;;;19.80;61.50;;;;;;4921491;29;20047;-76
2022/05/14 13:18:57;;;;;;;31.60;6.72;;;19.80;61.80;;;;;;4920523;29;20131;-69
2022/05/14 13:21:31;;;;;;;25.70;5.85;;;19.80;62.00;;;;;;4921219;29;20168;-73
2022/05/14 13:24:00;;;;;;;29.83;7.07;;;19.80;62.30;;;;;;4921701;29;20154;-72
2022/05/14 13:26:47;;;;;;;38.80;6.95;;;19.80;62.50;;;;;;4921080;29;20396;-73
2022/05/14 13:29:34;;;;;;;31.00;6.82;;;19.90;62.50;;;;;;4921297;29;20052;-72
2022/05/14 13:32:25;;;;;;;27.67;6.60;;;19.90;62.50;;;;;;4919813;29;20368;-72
2022/05/14 13:37:52;;;;;;;26.52;5.57;;;19.90;62.40;;;;;;4917877;29;20052;-72
2022/05/14 13:40:30;;;;;;;28.95;5.55;;;19.90;63.30;;;;;;4901645;29;20516;-74
2022/05/14 13:43:05;;;;;;;33.38;6.30;;;19.90;63.00;;;;;;4901013;29;20052;-71
2022/05/14 13:45:34;;;;;;;29.20;5.78;;;19.90;63.30;;;;;;4902261;29;20058;-72
2022/05/14 13:48:03;;;;;;;24.27;5.10;;;19.90;63.40;;;;;;4918946;29;20122;-74
2022/05/14 13:50:36;;;;;;;24.95;5.68;;;19.90;63.60;;;;;;4920769;29;20056;-73
2022/05/14 13:53:04;;;;;;;30.25;6.15;;;19.90;63.80;;;;;;4920916;29;20129;-73
2022/05/14 13:55:41;;;;;;;22.17;5.25;;;19.90;63.80;;;;;;4906124;29;20049;-72
2022/05/14 13:58:23;;;;;;;19.67;4.68;;;19.90;64.00;;;;;;4903654;29;20100;-72
2022/05/14 14:00:59;;;;;;;19.55;5.50;;;19.90;64.10;;;;;;4902113;29;20060;-72
2022/05/14 14:03:29;;;;;;;25.08;5.40;;;19.90;64.20;;;;;;4917944;29;20040;-73
2022/05/14 14:05:55;;;;;;;21.88;5.00;;;19.90;64.20;;;;;;4910196;29;20084;-73
2022/05/14 14:08:28;;;;;;;30.60;6.30;;;19.90;64.30;;;;;;4920287;29;20163;-73
2022/05/14 14:10:56;;;;;;;30.65;5.32;;;19.90;64.50;;;;;;4902130;29;20465;-74
2022/05/14 14:13:22;;;;;;;32.72;5.70;;;19.90;64.40;;;;;;4901208;29;20090;-74
2022/05/14 14:15:48;;;;;;;23.35;6.18;;;19.90;64.40;;;;;;4901588;29;20055;-74
2022/05/14 14:18:15;;;;;;;28.23;5.57;;;19.90;64.40;;;;;;4900827;29;20368;-73
2022/05/14 14:20:44;;;;;;;25.10;5.20;;;19.90;64.30;;;;;;4913278;29;20095;-74
2022/05/14 14:23:16;;;;;;;24.73;5.40;;;19.90;64.10;;;;;;4919622;29;20391;-74
2022/05/14 14:25:43;;;;;;;24.52;5.65;;;19.90;64.10;;;;;;4919904;29;20048;-74
2022/05/14 14:28:10;;;;;;;29.48;5.50;;;19.90;64.10;;;;;;4919106;29;20059;-74
2022/05/14 14:30:36;;;;;;;20.63;5.20;;;19.90;63.50;;;;;;4905400;29;20129;-74
2022/05/14 14:33:02;;;;;;;25.45;4.97;;;19.90;63.20;;;;;;4916452;29;20074;-74
2022/05/14 14:35:28;;;;;;;23.75;4.85;;;19.90;63.00;;;;;;4904383;29;20484;-75
2022/05/14 14:37:54;;;;;;;25.25;5.95;;;19.90;63.20;;;;;;4919093;29;20043;-74
2022/05/14 14:40:20;;;;;;;22.20;5.15;;;19.90;63.40;;;;;;4900815;29;20369;-72
2022/05/14 14:42:47;;;;;;;26.15;6.05;;;20.00;63.10;;;;;;4901585;29;20048;-77
2022/05/14 14:45:13;;;;;;;23.10;5.97;;;19.90;63.30;;;;;;4899656;29;20079;-79
2022/05/14 14:47:41;;;;;;;25.45;6.05;;;20.00;63.30;;;;;;4900529;29;20048;-78
2022/05/14 14:50:07;;;;;;;22.23;5.43;;;20.00;62.80;;;;;;4900673;29;20068;-82
2022/05/14 14:52:33;;;;;;;32.22;6.97;;;20.00;62.70;;;;;;4899703;29;20079;-74
2022/05/14 14:54:59;;;;;;;24.08;7.13;;;20.00;62.70;;;;;;4900758;29;20044;-74
2022/05/14 14:57:25;;;;;;;23.67;8.38;;;20.00;62.80;;;;;;4904206;29;20343;-76
2022/05/14 14:59:51;;;;;;;27.58;7.85;;;20.00;64.10;;;;;;4907960;29;20048;-74
2022/05/14 15:02:22;;;;;;;20.48;6.95;;;20.10;65.70;;;;;;4907167;29;20138;-80
2022/05/14 15:04:54;;;;;;;27.30;6.20;;;20.10;66.70;;;;;;4911527;29;20082;-72
2022/05/14 15:07:22;;;;;;;30.67;7.22;;;20.10;66.90;;;;;;4908325;29;20055;-79
2022/05/14 15:09:49;;;;;;;28.75;6.75;;;20.10;67.20;;;;;;4907481;29;20052;-73
2022/05/14 15:12:15;;;;;;;27.17;6.40;;;20.20;66.50;;;;;;4918804;29;20129;-75
2022/05/14 15:14:42;;;;;;;25.13;7.50;;;20.20;66.70;;;;;;4919272;29;20048;-78
2022/05/14 15:17:08;;;;;;;27.10;6.55;;;20.20;66.80;;;;;;4919013;29;20043;-75
2022/05/14 15:19:34;;;;;;;32.70;6.95;;;20.20;67.60;;;;;;4918775;29;20059;-72
2022/05/14 15:22:00;;;;;;;24.90;6.57;;;20.20;67.80;;;;;;4904295;29;20051;-77
2022/05/14 15:24:26;;;;;;;18.70;4.80;;;20.20;66.70;;;;;;4918867;29;20063;-76
2022/05/14 15:26:52;;;;;;;19.15;4.75;;;20.30;64.60;;;;;;4918459;29;20052;-76
2022/05/14 15:29:17;;;;;;;22.02;5.63;;;20.20;64.30;;;;;;4917951;29;20074;-76
2022/05/14 15:31:43;;;;;;;22.60;5.60;;;20.20;63.90;;;;;;4919341;29;20048;-73
2022/05/14 15:34:09;;;;;;;21.63;5.55;;;20.20;65.70;;;;;;4919178;29;20468;-71
2022/05/14 15:36:35;;;;;;;21.83;6.10;;;20.20;67.30;;;;;;4918360;29;20056;-73
2022/05/14 15:39:00;;;;;;;23.17;5.82;;;20.30;67.90;;;;;;4900058;29;20062;-72
2022/05/14 15:41:26;;;;;;;21.30;4.82;;;20.30;68.60;;;;;;4900220;29;20505;-72
2022/05/14 15:44:01;;;;;;;20.80;5.28;;;20.30;68.90;;;;;;4899526;29;20061;-79
2022/05/14 15:46:28;;;;;;;29.25;6.05;;;20.30;68.50;;;;;;4930375;29;20528;-80
2022/05/14 15:49:08;;;;;;;31.08;6.43;;;20.30;67.30;;;;;;4930004;29;20052;-72
2022/05/14 15:51:37;;;;;;;22.00;4.68;;;20.40;66.30;;;;;;4899802;29;20051;-73
2022/05/14 15:54:04;;;;;;;25.63;5.47;;;20.40;65.80;;;;;;4900068;29;20052;-73
2022/05/14 15:56:33;;;;;;;16.08;4.65;;;20.40;65.90;;;;;;4902833;29;20087;-73
2022/05/14 15:58:59;;;;;;;22.30;5.97;;;20.40;65.30;;;;;;4904103;29;20052;-73
2022/05/14 16:01:26;;;;;;;22.27;6.15;;;20.40;65.60;;;;;;4897952;29;20053;-73
2022/05/14 16:03:51;;;;;;;21.75;4.65;;;20.40;65.30;;;;;;4884886;29;20113;-73
2022/05/14 16:06:17;;;;;;;20.05;5.95;;;20.40;64.60;;;;;;4884974;29;20052;-73
2022/05/14 16:08:44;;;;;;;24.90;5.80;;;20.40;64.50;;;;;;4884730;29;20136;-72
2022/05/14 16:16:39;;;;;;;18.13;5.25;;;20.50;64.60;;;;;;4885362;29;20053;-73
2022/05/14 16:19:05;;;;;;;20.42;5.50;;;20.50;63.70;;;;;;4884926;29;20052;-73
2022/05/14 16:21:31;;;;;;;24.33;6.80;;;20.50;63.50;;;;;;4884960;29;20053;-72
2022/05/14 16:23:58;;;;;;;23.73;5.32;;;20.50;63.30;;;;;;4884747;29;20445;-73
2022/05/14 18:38:57;;;;;;;14.32;3.63;;;20.40;62.40;;;;;;4835756;29;20007;-71
2022/05/14 18:41:27;;;;;;;13.18;3.42;;;20.40;62.20;;;;;;4835714;29;20118;-75
2022/05/14 18:43:56;;;;;;;11.88;3.65;;;20.40;62.60;;;;;;4845173;29;20054;-74
2022/05/14 18:46:22;;;;;;;19.75;5.05;;;20.50;62.40;;;;;;4845154;29;20046;-74
2022/05/14 18:48:48;;;;;;;22.13;5.07;;;20.50;62.10;;;;;;4842443;29;20423;-75
2022/05/14 18:51:14;;;;;;;20.63;5.13;;;20.50;61.40;;;;;;4840839;29;20054;-74
2022/05/14 18:53:40;;;;;;;18.83;4.07;;;20.40;60.80;;;;;;4826824;29;20065;-74
2022/05/14 18:56:07;;;;;;;20.58;5.25;;;20.40;60.30;;;;;;4826864;29;20085;-74
2022/05/14 18:58:33;;;;;;;18.17;4.82;;;20.40;59.90;;;;;;4826757;29;20050;-74
2022/05/14 19:01:00;;;;;;;17.20;5.53;;;20.40;59.10;;;;;;4826863;29;20134;-74
2022/05/14 19:03:25;;;;;;;19.50;6.30;;;20.40;59.10;;;;;;4826915;29;20464;-74
2022/05/14 19:08:37;;;;;;;15.25;4.75;;;20.40;59.00;;;;;;4826475;29;20058;-74
2022/05/14 19:11:04;;;;;;;19.35;5.00;;;20.40;59.00;;;;;;4827816;29;20065;-74
2022/05/14 19:13:32;;;;;;;19.77;5.00;;;20.40;59.30;;;;;;4841281;29;20068;-74
2022/05/14 19:15:58;;;;;;;17.48;5.32;;;20.40;59.80;;;;;;4844626;29;20058;-74
2022/05/14 19:18:24;;;;;;;17.60;4.63;;;20.40;59.80;;;;;;4844566;29;20497;-74
2022/05/14 19:20:51;;;;;;;14.52;4.38;;;20.30;59.60;;;;;;4844549;29;20054;-74
2022/05/14 19:23:18;;;;;;;18.45;5.00;;;20.30;59.70;;;;;;4844561;29;20085;-74
2022/05/14 19:25:45;;;;;;;18.90;4.65;;;20.40;60.00;;;;;;4844845;29;20060;-74
2022/05/14 19:28:11;;;;;;;17.05;4.75;;;20.40;60.10;;;;;;4844497;29;20085;-74
2022/05/14 19:30:38;;;;;;;14.80;4.43;;;20.40;60.30;;;;;;4844279;29;20085;-75
2022/05/14 19:33:06;;;;;;;12.30;4.50;;;20.40;60.40;;;;;;4844392;29;20054;-74
2022/05/14 19:35:38;;;;;;;15.98;4.00;;;20.40;60.40;;;;;;4844060;29;20455;-74
2022/05/14 19:38:13;;;;;;;22.15;4.43;;;20.40;60.20;;;;;;4844028;29;20061;-72
2022/05/14 19:40:50;;;;;;;15.73;3.85;;;20.40;60.60;;;;;;4844627;29;20054;-72
2022/05/14 19:43:22;;;;;;;11.65;4.00;;;20.30;60.80;;;;;;4844141;29;20081;-73
2022/05/14 19:45:53;;;;;;;13.25;4.25;;;20.30;60.60;;;;;;4844029;29;20463;-72
2022/05/14 19:48:19;;;;;;;14.93;4.30;;;20.30;60.60;;;;;;4844560;29;20478;-72
2022/05/14 19:50:46;;;;;;;12.60;4.30;;;20.30;60.70;;;;;;4843937;29;20054;-73
2022/05/14 19:53:15;;;;;;;13.20;4.15;;;20.30;60.80;;;;;;4844380;29;20102;-75
2022/05/14 19:55:40;;;;;;;15.82;4.65;;;20.30;61.30;;;;;;4844236;29;20126;-73
2022/05/14 19:58:09;;;;;;;19.27;4.50;;;20.30;61.30;;;;;;4843655;29;20054;-71
2022/05/14 20:00:35;;;;;;;13.23;3.70;;;20.30;61.30;;;;;;4844249;29;20081;-73
2022/05/14 20:03:01;;;;;;;14.05;4.32;;;20.30;61.30;;;;;;4843632;29;20129;-70
2022/05/14 20:05:26;;;;;;;10.32;4.13;;;20.30;61.40;;;;;;4829137;29;20211;-72
2022/05/14 20:07:52;;;;;;;9.52;3.60;;;20.30;62.20;;;;;;4844231;29;20450;-70
2022/05/14 20:10:18;;;;;;;17.73;5.40;;;20.30;60.60;;;;;;4844087;29;20159;-70
2022/05/14 20:12:44;;;;;;;13.68;4.05;;;20.20;60.00;;;;;;4843985;29;20057;-72
2022/05/14 20:15:10;;;;;;;16.50;5.30;;;20.10;59.80;;;;;;4843841;29;20092;-74
2022/05/14 20:23:08;;;;;;;17.45;5.47;;;19.70;59.70;;;;;;4844663;29;20358;-73
2022/05/14 20:25:35;;;;;;;12.40;4.38;;;19.50;59.80;;;;;;4843924;29;20062;-73